createdAt,value
2018-12-10T00:00:03.448Z,98367.11
2018-12-10T00:02:31.001Z,98363.20
2018-12-10T00:04:58.512Z,98375.03
2018-12-10T00:07:26.081Z,98373.27
2018-12-10T00:09:53.678Z,98371.61
2018-12-10T00:12:21.296Z,98369.02
2018-12-10T00:14:48.803Z,98372.53
2018-12-10T00:17:16.487Z,98361.63
2018-12-10T00:19:44.048Z,98376.48
2018-12-10T00:22:11.642Z,98384.79
2018-12-10T00:24:39.268Z,98391.36
2018-12-10T00:27:06.893Z,98396.16
2018-12-10T00:29:34.411Z,98393.59
2018-12-10T00:32:01.943Z,98397.07
2018-12-10T00:34:29.634Z,98404.48
2018-12-10T00:36:57.403Z,98403.62
2018-12-10T00:39:24.973Z,98416.73
2018-12-10T00:41:52.630Z,98409.78
2018-12-10T00:44:20.183Z,98410.67
2018-12-10T00:46:47.748Z,98417.23
2018-12-10T00:49:15.244Z,98419.39
2018-12-10T00:51:42.821Z,98418.97
2018-12-10T00:54:10.384Z,98425.08
2018-12-10T00:56:37.972Z,98431.16
2018-12-10T00:59:05.504Z,98437.28
2018-12-10T01:01:33.049Z,98446.90
2018-12-10T01:04:00.660Z,98447.77
2018-12-10T01:06:28.226Z,98442.06
2018-12-10T01:08:55.804Z,98446.45
2018-12-10T01:11:23.544Z,98449.05
2018-12-10T01:13:51.323Z,98448.23
2018-12-10T01:16:19.008Z,98464.83
2018-12-10T01:18:46.553Z,98468.78
2018-12-10T01:21:14.108Z,98471.40
2018-12-10T01:23:41.674Z,98467.46
2018-12-10T01:26:09.251Z,98475.28
2018-12-10T01:28:36.888Z,98470.90
2018-12-10T01:31:04.489Z,98479.18
2018-12-10T01:33:32.053Z,98484.86
2018-12-10T01:35:59.595Z,98482.15
2018-12-10T01:38:27.144Z,98485.64
2018-12-10T01:40:54.699Z,98492.16
2018-12-10T01:43:22.301Z,98502.64
2018-12-10T01:45:49.857Z,98497.85
2018-12-10T01:48:17.441Z,98494.83
2018-12-10T01:50:45.066Z,98498.25
2018-12-10T01:53:12.606Z,98491.30
2018-12-10T01:55:40.169Z,98493.91
2018-12-10T01:58:07.725Z,98501.38
2018-12-10T02:00:35.261Z,98504.87
2018-12-10T02:03:02.859Z,98504.48
2018-12-10T02:05:30.463Z,98509.27
2018-12-10T02:07:58.059Z,98518.02
2018-12-10T02:10:25.731Z,98525.39
2018-12-10T02:12:53.274Z,98518.44
2018-12-10T02:15:20.845Z,98522.80
2018-12-10T02:17:48.448Z,98528.45
2018-12-10T02:20:15.990Z,98541.97
2018-12-10T02:22:43.535Z,98535.36
2018-12-10T02:25:11.084Z,98540.63
2018-12-10T02:27:38.665Z,98532.36
2018-12-10T02:30:06.183Z,98552.02
2018-12-10T02:32:33.951Z,98550.25
2018-12-10T02:35:01.545Z,98553.75
2018-12-10T02:37:29.038Z,98551.61
2018-12-10T02:39:56.635Z,98563.83
2018-12-10T02:42:24.307Z,98562.53
2018-12-10T02:44:51.878Z,98566.04
2018-12-10T02:47:19.440Z,98561.23
2018-12-10T02:49:46.971Z,98572.61
2018-12-10T02:52:14.579Z,98570.88
2018-12-10T02:54:42.142Z,98585.26
2018-12-10T02:57:09.674Z,98573.50
2018-12-10T02:59:37.266Z,98581.37
2018-12-10T03:02:04.921Z,98591.81
2018-12-10T03:04:32.443Z,98601.43
2018-12-10T03:07:00.066Z,98595.34
2018-12-10T03:09:27.591Z,98600.56
2018-12-10T03:11:55.152Z,98604.94
2018-12-10T03:14:22.690Z,98596.65
2018-12-10T03:16:50.194Z,98609.27
2018-12-10T03:19:17.905Z,98617.14
2018-12-10T03:21:45.505Z,98607.54
2018-12-10T03:24:13.110Z,98614.53
2018-12-10T03:26:40.651Z,98627.61
2018-12-10T03:29:08.209Z,98624.98
2018-12-10T03:31:35.966Z,98626.74
2018-12-10T03:34:03.567Z,98628.05
2018-12-10T03:36:31.122Z,98638.94
2018-12-10T03:38:58.656Z,98635.93
2018-12-10T03:41:26.192Z,98642.45
2018-12-10T03:43:53.834Z,98645.93
2018-12-10T03:46:21.380Z,98633.70
2018-12-10T03:48:49.034Z,98644.17
2018-12-10T03:51:16.556Z,98635.48
2018-12-10T03:53:44.342Z,98634.17
2018-12-10T03:56:11.817Z,98659.06
2018-12-10T03:58:39.430Z,98645.52
2018-12-10T04:01:06.922Z,98644.63
2018-12-10T04:03:34.484Z,98651.19
2018-12-10T04:06:02.983Z,98652.05
2018-12-10T04:08:30.783Z,98653.81
2018-12-10T04:10:58.327Z,98653.36
2018-12-10T04:13:25.867Z,98658.61
2018-12-10T04:15:53.593Z,98657.28
2018-12-10T04:18:21.156Z,98646.35
2018-12-10T04:20:49.113Z,98648.12
2018-12-10T04:23:16.648Z,98650.73
2018-12-10T04:25:44.245Z,98656.41
2018-12-10T04:28:11.803Z,98662.94
2018-12-10T04:30:39.421Z,98667.75
2018-12-10T04:33:06.963Z,98663.80
2018-12-10T04:35:34.614Z,98667.75
2018-12-10T04:38:02.224Z,98671.23
2018-12-10T04:40:29.728Z,98675.59
2018-12-10T04:42:57.232Z,98668.18
2018-12-10T04:45:24.762Z,98670.80
2018-12-10T04:47:52.349Z,98679.95
2018-12-10T04:50:19.893Z,98686.94
2018-12-10T04:52:47.489Z,98679.10
2018-12-10T04:55:15.033Z,98690.44
2018-12-10T04:57:42.641Z,98692.59
2018-12-10T05:00:10.360Z,98698.70
2018-12-10T05:02:37.887Z,98676.47
2018-12-10T05:05:05.913Z,98688.68
2018-12-10T05:07:33.504Z,98679.94
2018-12-10T05:10:01.040Z,98688.25
2018-12-10T05:12:28.578Z,98711.80
2018-12-10T05:14:56.292Z,98693.91
2018-12-10T05:17:23.961Z,98700.45
2018-12-10T05:19:51.532Z,98706.98
2018-12-10T05:22:19.077Z,98705.25
2018-12-10T05:24:46.602Z,98712.21
2018-12-10T05:27:14.145Z,98712.67
2018-12-10T05:29:41.809Z,98718.33
2018-12-10T05:32:09.446Z,98706.98
2018-12-10T05:34:37.109Z,98725.27
2018-12-10T05:37:04.862Z,98720.92
2018-12-10T05:39:32.543Z,98732.70
2018-12-10T05:42:00.070Z,98740.11
2018-12-10T05:44:27.616Z,98746.64
2018-12-10T05:46:55.239Z,98746.57
2018-12-10T05:49:22.831Z,98755.30
2018-12-10T05:51:50.539Z,98758.28
2018-12-10T05:54:18.101Z,98758.73
2018-12-10T05:56:45.659Z,98764.42
2018-12-10T05:59:13.171Z,98772.23
2018-12-10T06:01:40.700Z,98775.27
2018-12-10T06:04:08.260Z,98777.80
2018-12-10T06:06:35.870Z,98782.58
2018-12-10T06:09:05.074Z,98786.91
2018-12-10T06:11:32.662Z,98791.63
2018-12-10T06:14:00.192Z,98796.42
2018-12-10T06:16:27.793Z,98795.47
2018-12-10T06:18:55.751Z,98798.52
2018-12-10T06:21:24.037Z,98807.69
2018-12-10T06:23:51.689Z,98804.20
2018-12-10T06:26:19.254Z,98805.05
2018-12-10T06:28:46.856Z,98811.60
2018-12-10T06:31:14.384Z,98807.20
2018-12-10T06:33:41.955Z,98809.36
2018-12-10T06:36:09.607Z,98819.77
2018-12-10T06:38:37.172Z,98811.91
2018-12-10T06:41:04.751Z,98814.48
2018-12-10T06:43:32.284Z,98821.84
2018-12-10T06:45:59.797Z,98814.00
2018-12-10T06:48:27.355Z,98817.48
2018-12-10T06:50:54.846Z,98824.90
2018-12-10T06:53:22.515Z,98827.52
2018-12-10T06:55:50.071Z,98834.06
2018-12-10T06:58:17.657Z,98833.20
2018-12-10T07:00:45.368Z,98827.59
2018-12-10T07:03:13.170Z,98836.81
2018-12-10T07:05:40.741Z,98837.25
2018-12-10T07:08:08.250Z,98848.59
2018-12-10T07:10:35.749Z,98844.70
2018-12-10T07:13:03.268Z,98849.09
2018-12-10T07:15:30.819Z,98854.31
2018-12-10T07:17:58.331Z,98860.02
2018-12-10T07:20:25.861Z,98862.65
2018-12-10T07:22:53.385Z,98866.98
2018-12-10T07:25:20.911Z,98870.95
2018-12-10T07:27:48.459Z,98869.62
2018-12-10T07:30:16.165Z,98867.91
2018-12-10T07:32:43.722Z,98874.02
2018-12-10T07:35:11.240Z,98878.38
2018-12-10T07:37:38.790Z,98876.62
2018-12-10T07:40:06.771Z,98882.30
2018-12-10T07:42:34.482Z,98887.61
2018-12-10T07:45:02.052Z,98893.75
2018-12-10T07:47:29.594Z,98896.39
2018-12-10T07:49:57.228Z,98893.44
2018-12-10T07:52:24.884Z,98897.38
2018-12-10T07:54:52.418Z,98900.47
2018-12-10T07:57:20.089Z,98905.24
2018-12-10T07:59:47.766Z,98904.84
2018-12-10T08:02:15.337Z,98907.87
2018-12-10T08:04:42.888Z,98900.94
2018-12-10T08:07:10.505Z,98913.14
2018-12-10T08:09:38.017Z,98914.00
2018-12-10T08:12:05.552Z,98915.81
2018-12-10T08:14:33.067Z,98926.69
2018-12-10T08:19:34.804Z,98920.09
2018-12-10T08:22:02.377Z,98927.14
2018-12-10T08:24:29.924Z,98922.73
2018-12-10T08:26:57.495Z,98928.42
2018-12-10T08:29:25.064Z,98928.43
2018-12-10T08:31:52.698Z,98933.74
2018-12-10T08:34:20.318Z,98937.25
2018-12-10T08:36:47.967Z,98934.20
2018-12-10T08:39:15.638Z,98936.79
2018-12-10T08:41:43.337Z,98945.48
2018-12-10T08:44:10.883Z,98939.91
2018-12-10T08:46:38.565Z,98947.80
2018-12-10T08:49:06.140Z,98950.47
2018-12-10T08:51:33.705Z,98950.83
2018-12-10T08:54:01.278Z,98948.66
2018-12-10T08:56:28.812Z,98952.19
2018-12-10T08:58:56.495Z,98949.09
2018-12-10T09:01:24.001Z,98954.38
2018-12-10T09:03:51.690Z,98947.47
2018-12-10T09:06:19.365Z,98952.28
2018-12-10T09:08:47.083Z,98949.14
2018-12-10T09:11:14.761Z,98955.69
2018-12-10T09:13:42.323Z,98967.57
2018-12-10T09:16:09.857Z,98962.33
2018-12-10T09:18:37.507Z,98960.60
2018-12-10T09:21:05.276Z,98957.98
2018-12-10T09:23:32.825Z,98966.75
2018-12-10T09:26:00.351Z,98961.53
2018-12-10T09:28:27.865Z,98961.54
2018-12-10T09:30:55.369Z,98968.97
2018-12-10T09:33:22.945Z,98955.88
2018-12-10T09:35:50.542Z,98958.03
2018-12-10T09:38:18.087Z,98955.45
2018-12-10T09:40:45.921Z,98971.20
2018-12-10T09:43:13.556Z,98961.17
2018-12-10T09:45:41.096Z,98964.67
2018-12-10T09:48:08.615Z,98968.61
2018-12-10T09:50:36.178Z,98952.86
2018-12-10T09:53:03.814Z,98961.62
2018-12-10T09:55:31.389Z,98967.71
2018-12-10T09:57:59.148Z,98962.93
2018-12-10T10:00:26.699Z,98965.98
2018-12-10T10:02:54.282Z,98972.95
2018-12-10T10:05:21.923Z,98976.89
2018-12-10T10:07:49.468Z,98961.59
2018-12-10T10:10:16.983Z,98976.45
2018-12-10T10:12:44.641Z,98983.86
2018-12-10T10:15:12.312Z,98980.37
2018-12-10T10:17:39.902Z,98991.28
2018-12-10T10:20:07.617Z,98989.94
2018-12-10T10:22:35.397Z,98985.98
2018-12-10T10:25:02.993Z,98983.78
2018-12-10T10:27:30.514Z,98983.34
2018-12-10T10:29:58.042Z,98984.21
2018-12-10T10:32:25.678Z,98987.26
2018-12-10T10:34:53.264Z,98999.45
2018-12-10T10:37:20.893Z,98984.69
2018-12-10T10:39:48.468Z,98986.43
2018-12-10T10:42:16.145Z,98985.11
2018-12-10T10:44:43.840Z,98982.94
2018-12-10T10:47:11.407Z,98984.27
2018-12-10T10:49:38.984Z,98992.15
2018-12-10T10:52:06.619Z,98986.00
2018-12-10T10:54:34.187Z,98978.16
2018-12-10T10:57:01.738Z,98980.77
2018-12-10T10:59:29.253Z,98979.94
2018-12-10T11:02:02.793Z,98972.97
2018-12-10T11:04:37.552Z,98977.32
2018-12-10T11:07:00.510Z,98979.52
2018-12-10T11:09:28.043Z,98975.11
2018-12-10T11:11:55.544Z,98982.56
2018-12-10T11:14:23.270Z,98991.31
2018-12-10T11:16:51.017Z,98986.07
2018-12-10T11:19:18.754Z,98989.58
2018-12-10T11:21:47.335Z,98990.45
2018-12-10T11:24:14.977Z,98983.45
2018-12-10T11:26:43.568Z,98991.31
2018-12-10T11:29:13.273Z,98983.88
2018-12-10T11:31:40.930Z,98981.72
2018-12-10T11:34:08.458Z,98984.77
2018-12-10T11:36:36.068Z,98981.70
2018-12-10T11:39:04.921Z,98989.56
2018-12-10T11:41:32.658Z,98973.83
2018-12-10T11:44:00.189Z,98973.41
2018-12-10T11:46:27.717Z,98966.88
2018-12-10T11:48:55.326Z,98964.22
2018-12-10T11:51:23.347Z,98962.48
2018-12-10T11:53:50.873Z,98967.25
2018-12-10T11:56:18.639Z,98957.19
2018-12-10T11:58:46.147Z,98959.80
2018-12-10T12:01:13.765Z,98944.51
2018-12-10T12:03:41.274Z,98949.33
2018-12-10T12:06:08.837Z,98945.39
2018-12-10T12:08:36.409Z,98952.86
2018-12-10T12:11:04.073Z,98943.25
2018-12-10T12:13:31.739Z,98943.27
2018-12-10T12:15:59.469Z,98948.91
2018-12-10T12:18:27.016Z,98941.95
2018-12-10T12:20:54.612Z,98943.69
2018-12-10T12:23:23.989Z,98948.08
2018-12-10T12:25:51.845Z,98935.39
2018-12-10T12:28:19.481Z,98928.83
2018-12-10T12:30:47.239Z,98932.34
2018-12-10T12:33:15.826Z,98931.89
2018-12-10T12:35:43.383Z,98934.96
2018-12-10T12:38:10.909Z,98942.37
2018-12-10T12:40:38.431Z,98942.80
2018-12-10T12:44:09.373Z,98933.17
2018-12-10T12:46:36.889Z,98941.46
2018-12-10T12:49:04.431Z,98934.91
2018-12-10T12:51:32.017Z,98935.36
2018-12-10T12:53:59.550Z,98927.94
2018-12-10T12:56:27.239Z,98931.88
2018-12-10T12:58:54.725Z,98928.84
2018-12-10T13:01:22.287Z,98925.33
2018-12-10T13:03:50.045Z,98922.73
2018-12-10T13:06:17.583Z,98934.52
2018-12-10T13:08:45.106Z,98924.47
2018-12-10T13:11:12.685Z,98923.61
2018-12-10T13:13:40.253Z,98919.23
2018-12-10T13:16:07.985Z,98915.72
2018-12-10T13:18:35.521Z,98905.23
2018-12-10T13:21:03.231Z,98907.44
2018-12-10T13:23:30.788Z,98902.19
2018-12-10T13:25:58.362Z,98908.67
2018-12-10T13:28:26.175Z,98895.89
2018-12-10T13:30:53.709Z,98887.70
2018-12-10T13:33:21.402Z,98874.22
2018-12-10T13:35:48.927Z,98883.94
2018-12-10T13:38:16.545Z,98875.30
2018-12-10T13:40:44.069Z,98867.39
2018-12-10T13:43:12.112Z,98881.17
2018-12-10T13:45:39.691Z,98869.35
2018-12-10T13:48:07.251Z,98870.56
2018-12-10T13:50:34.799Z,98860.72
2018-12-10T13:53:02.349Z,98866.85
2018-12-10T13:55:29.903Z,98859.59
2018-12-10T13:57:57.470Z,98852.66
2018-12-10T14:00:25.044Z,98855.10
2018-12-10T14:02:52.564Z,98853.12
2018-12-10T14:05:20.083Z,98858.93
2018-12-10T14:07:48.337Z,98855.27
2018-12-10T14:10:16.112Z,98853.62
2018-12-10T14:12:43.749Z,98858.88
2018-12-10T14:15:11.364Z,98866.92
2018-12-10T14:17:39.044Z,98865.52
2018-12-10T14:20:07.521Z,98878.92
2018-12-10T14:22:35.160Z,98875.95
2018-12-10T14:25:02.785Z,98870.02
2018-12-10T14:27:30.456Z,98862.17
2018-12-10T14:29:58.018Z,98862.55
2018-12-10T14:32:25.567Z,98869.75
2018-12-10T14:34:53.080Z,98892.74
2018-12-10T14:37:20.599Z,98875.24
2018-12-10T14:39:49.217Z,98883.85
2018-12-10T14:42:20.645Z,98894.48
2018-12-10T14:44:48.301Z,98904.11
2018-12-10T14:47:15.965Z,98896.25
2018-12-10T14:49:43.511Z,98896.34
2018-12-10T14:52:11.050Z,98888.02
2018-12-10T14:54:38.570Z,98892.44
2018-12-10T14:57:06.222Z,98891.12
2018-12-10T14:59:33.734Z,98887.22
2018-12-10T15:02:01.336Z,98890.36
2018-12-10T15:04:28.866Z,98889.94
2018-12-10T15:06:56.407Z,98886.87
2018-12-10T15:09:23.926Z,98890.41
2018-12-10T15:11:51.475Z,98884.71
2018-12-10T15:14:19.015Z,98891.69
2018-12-10T15:16:46.608Z,98886.90
2018-12-10T15:19:14.230Z,98892.98
2018-12-10T15:21:41.741Z,98895.59
2018-12-10T15:24:09.394Z,98896.00
2018-12-10T15:26:36.947Z,98893.84
2018-12-10T15:29:04.730Z,98896.44
2018-12-10T15:31:32.391Z,98898.62
2018-12-10T15:34:00.069Z,98900.34
2018-12-10T15:36:27.699Z,98895.53
2018-12-10T15:38:55.355Z,98892.05
2018-12-10T15:41:22.915Z,98895.55
2018-12-10T15:43:50.461Z,98888.14
2018-12-10T15:46:18.083Z,98887.70
2018-12-10T15:48:45.710Z,98883.27
2018-12-10T15:51:13.342Z,98885.38
2018-12-10T15:53:40.893Z,98888.42
2018-12-10T15:56:08.550Z,98887.97
2018-12-10T15:58:36.147Z,98886.65
2018-12-10T16:01:04.009Z,98887.06
2018-12-10T16:03:31.807Z,98888.34
2018-12-10T16:05:59.425Z,98883.52
2018-12-10T16:08:29.842Z,98881.73
2018-12-10T16:10:59.204Z,98887.38
2018-12-10T16:13:27.403Z,98893.05
2018-12-10T16:15:55.382Z,98882.60
2018-12-10T16:18:22.990Z,98894.84
2018-12-10T16:20:51.664Z,98893.14
2018-12-10T16:23:20.859Z,98897.52
2018-12-10T16:25:49.419Z,98898.44
2018-12-10T16:28:17.635Z,98902.84
2018-12-10T16:30:46.758Z,98914.20
2018-12-10T16:33:15.101Z,98910.30
2018-12-10T16:35:44.210Z,98915.12
2018-12-10T16:38:12.687Z,98918.67
2018-12-10T16:40:41.940Z,98915.53
2018-12-10T16:43:10.233Z,98917.25
2018-12-10T16:45:39.004Z,98919.88
2018-12-10T16:48:08.470Z,98913.31
2018-12-10T16:50:36.941Z,98910.27
2018-12-10T16:53:04.673Z,98910.28
2018-12-10T16:55:32.871Z,98904.16
2018-12-10T16:58:01.673Z,98892.77
2018-12-10T17:00:30.485Z,98895.82
2018-12-10T17:03:00.685Z,98898.39
2018-12-10T17:05:29.557Z,98893.16
2018-12-10T17:07:58.789Z,98890.53
2018-12-10T17:10:28.974Z,98881.34
2018-12-10T17:12:57.592Z,98888.31
2018-12-10T17:15:26.459Z,98889.15
2018-12-10T17:17:55.692Z,98890.91
2018-12-10T17:20:25.567Z,98883.96
2018-12-10T17:22:54.871Z,98889.20
2018-12-10T17:25:24.304Z,98884.39
2018-12-10T17:27:53.647Z,98889.22
2018-12-10T17:30:22.615Z,98888.83
2018-12-10T17:32:51.332Z,98885.34
2018-12-10T17:35:19.464Z,98876.19
2018-12-10T17:37:49.502Z,98886.64
2018-12-10T17:40:18.530Z,98884.05
2018-12-10T17:42:46.651Z,98881.88
2018-12-10T17:45:14.837Z,98875.37
2018-12-10T17:47:42.968Z,98872.33
2018-12-10T17:50:11.877Z,98876.65
2018-12-10T17:52:40.615Z,98886.25
2018-12-10T17:55:08.609Z,98885.83
2018-12-10T17:57:37.815Z,98888.00
2018-12-10T18:00:08.467Z,98884.10
2018-12-10T18:02:37.500Z,98883.22
2018-12-10T18:05:05.804Z,98886.71
2018-12-10T18:07:34.195Z,98872.77
2018-12-10T18:10:04.057Z,98868.85
2018-12-10T18:12:33.469Z,98861.87
2018-12-10T18:15:02.194Z,98864.50
2018-12-10T18:17:31.063Z,98868.42
2018-12-10T18:20:00.037Z,98864.48
2018-12-10T18:22:33.195Z,98857.52
2018-12-10T18:25:03.606Z,98864.05
2018-12-10T18:27:33.360Z,98870.56
2018-12-10T18:30:02.412Z,98874.95
2018-12-10T18:32:30.674Z,98861.86
2018-12-10T18:34:59.319Z,98862.33
2018-12-10T18:37:28.294Z,98861.88
2018-12-10T18:39:57.745Z,98865.44
2018-12-10T18:42:29.305Z,98877.16
2018-12-10T18:44:58.658Z,98909.00
2018-12-10T18:47:28.103Z,98941.91
2018-12-10T18:49:56.886Z,98980.88
2018-12-10T18:52:25.013Z,98976.56
2018-12-10T18:54:53.103Z,98976.63
2018-12-10T18:57:21.168Z,98971.08
2018-12-10T18:59:49.952Z,98966.44
2018-12-10T19:02:17.758Z,98956.92
2018-12-10T19:04:46.459Z,98961.52
2018-12-10T19:07:14.638Z,98965.82
2018-12-10T19:09:42.705Z,98966.77
2018-12-10T19:14:57.300Z,98974.19
2018-12-10T19:17:25.329Z,98979.48
2018-12-10T19:19:53.410Z,98980.34
2018-12-10T19:22:21.891Z,98980.78
2018-12-10T19:24:50.466Z,98987.66
2018-12-10T19:27:18.723Z,98998.52
2018-12-10T19:29:46.759Z,98988.92
2018-12-10T19:32:15.608Z,98982.33
2018-12-10T19:34:43.567Z,98985.84
2018-12-10T19:37:11.562Z,98983.59
2018-12-10T19:39:39.431Z,98990.50
2018-12-10T19:42:07.247Z,98999.94
2018-12-10T19:44:34.940Z,98990.70
2018-12-10T19:47:03.019Z,98997.17
2018-12-10T19:49:30.768Z,98998.78
2018-12-10T19:51:58.695Z,98999.22
2018-12-10T19:54:26.572Z,98999.17
2018-12-10T19:56:54.549Z,98998.27
2018-12-10T19:59:22.718Z,98995.65
2018-12-10T20:01:50.363Z,99001.30
2018-12-10T20:04:17.943Z,98997.78
2018-12-10T20:06:50.939Z,98997.35
2018-12-10T20:09:18.657Z,98989.97
2018-12-10T20:11:46.940Z,98999.91
2018-12-10T20:14:14.763Z,99000.34
2018-12-10T20:16:42.504Z,99005.08
2018-12-10T20:19:10.150Z,99009.38
2018-12-10T20:21:37.874Z,99007.24
2018-12-10T20:24:05.842Z,99005.42
2018-12-10T20:26:33.502Z,99000.65
2018-12-10T20:29:01.405Z,99005.81
2018-12-10T20:31:29.181Z,99010.19
2018-12-10T20:33:57.165Z,99007.03
2018-12-10T20:36:25.021Z,99007.93
2018-12-10T20:38:52.790Z,99005.72
2018-12-10T20:41:20.651Z,99004.91
2018-12-10T20:43:48.281Z,99002.72
2018-12-10T20:46:15.948Z,99015.75
2018-12-10T20:48:43.676Z,99017.05
2018-12-10T20:51:12.304Z,99020.14
2018-12-10T20:53:40.120Z,99029.69
2018-12-10T20:56:07.788Z,99029.16
2018-12-10T20:58:35.505Z,99029.64
2018-12-10T21:01:03.241Z,99033.55
2018-12-10T21:03:32.070Z,99041.79
2018-12-10T21:06:04.914Z,99037.54
2018-12-10T21:08:32.443Z,99041.31
2018-12-10T21:11:00.261Z,99051.38
2018-12-10T21:13:28.164Z,99056.35
2018-12-10T21:15:55.806Z,99043.86
2018-12-10T21:18:23.512Z,99043.20
2018-12-10T21:20:51.147Z,99049.42
2018-12-10T21:23:18.881Z,99036.91
2018-12-10T21:25:46.534Z,99033.91
2018-12-10T21:28:14.061Z,99037.50
2018-12-10T21:30:41.769Z,99041.02
2018-12-10T21:33:09.290Z,99042.64
2018-12-10T21:35:37.002Z,99049.50
2018-12-10T21:38:04.672Z,99052.20
2018-12-10T21:40:32.465Z,99055.31
2018-12-10T21:43:01.018Z,99061.95
2018-12-10T21:45:28.603Z,99061.56
2018-12-10T21:47:56.252Z,99065.13
2018-12-10T21:50:23.872Z,99070.38
2018-12-10T21:52:51.451Z,99075.95
2018-12-10T21:55:19.163Z,99070.38
2018-12-10T21:57:46.684Z,99066.43
2018-12-10T22:00:14.643Z,99068.20
2018-12-10T22:02:42.227Z,99079.59
2018-12-10T22:05:09.776Z,99082.20
2018-12-10T22:07:37.395Z,99074.45
2018-12-10T22:10:12.899Z,99072.72
2018-12-10T22:12:42.020Z,99072.20
2018-12-10T22:15:10.431Z,99072.20
2018-12-10T22:17:37.982Z,99069.55
2018-12-10T22:20:05.958Z,99070.34
2018-12-10T22:22:33.551Z,99072.55
2018-12-10T22:25:02.575Z,99067.70
2018-12-10T22:27:30.355Z,99068.52
2018-12-10T22:29:57.874Z,99064.96
2018-12-10T22:32:25.507Z,99058.41
2018-12-10T22:34:53.048Z,99065.66
2018-12-10T22:37:20.577Z,99067.79
2018-12-10T22:39:48.093Z,99059.06
2018-12-10T22:42:15.605Z,99056.15
2018-12-10T22:44:43.368Z,99057.45
2018-12-10T22:47:10.898Z,99051.53
2018-12-10T22:49:38.566Z,99055.96
2018-12-10T22:52:06.140Z,99056.08
2018-12-10T22:54:33.837Z,99047.94
2018-12-10T22:57:01.399Z,99050.63
2018-12-10T22:59:28.953Z,99058.13
2018-12-10T23:01:56.482Z,99052.05
2018-12-10T23:04:24.520Z,99052.44
2018-12-10T23:06:52.163Z,99047.66
2018-12-10T23:09:21.061Z,99049.44
2018-12-10T23:11:48.584Z,99052.44
2018-12-10T23:14:16.097Z,99053.75
2018-12-10T23:16:43.683Z,99052.08
2018-12-10T23:19:11.197Z,99053.82
2018-12-10T23:21:38.759Z,99045.09
2018-12-10T23:24:06.274Z,99051.21
2018-12-10T23:26:33.855Z,99041.17
2018-12-10T23:29:01.484Z,99039.51
2018-12-10T23:31:29.075Z,99035.09
2018-12-10T23:33:56.626Z,99042.80
2018-12-10T23:36:24.188Z,99039.76
2018-12-10T23:38:51.948Z,99043.20
2018-12-10T23:41:19.670Z,99043.20
2018-12-10T23:43:47.367Z,99047.15
2018-12-10T23:46:14.972Z,99043.16
2018-12-10T23:48:42.496Z,99045.05
2018-12-10T23:51:10.093Z,99045.05
2018-12-10T23:53:37.658Z,99044.26
2018-12-10T23:56:05.186Z,99044.36
2018-12-10T23:58:32.807Z,99040.48
